createdAt,value
2022-09-13T00:00:09.581Z,100078.34
2022-09-13T00:02:58.590Z,100080.88
2022-09-13T00:05:47.402Z,100080.88
2022-09-13T00:08:37.301Z,100072.66
2022-09-13T00:11:27.223Z,100075.97
2022-09-13T00:14:15.649Z,100064.00
2022-09-13T00:17:04.050Z,100061.53
2022-09-13T00:19:52.724Z,100056.19
2022-09-13T00:22:41.241Z,100061.94
2022-09-13T00:25:32.570Z,100059.03
2022-09-13T00:28:20.988Z,100055.31
2022-09-13T00:31:11.120Z,100052.88
2022-09-13T00:34:00.683Z,100045.06
2022-09-13T00:36:49.075Z,100036.38
2022-09-13T00:39:37.683Z,100040.91
2022-09-13T00:42:28.896Z,100041.94
2022-09-13T00:45:18.799Z,100031.69
2022-09-13T00:48:08.384Z,100021.56
2022-09-13T00:50:57.771Z,100017.84
2022-09-13T00:53:49.601Z,100023.00
2022-09-13T00:56:43.724Z,100014.59
2022-09-13T00:59:36.112Z,100007.16
2022-09-13T01:02:26.151Z,100007.59
2022-09-13T01:05:15.731Z,100008.78
2022-09-13T01:08:04.648Z,100003.88
2022-09-13T01:10:54.091Z,99998.97
2022-09-13T01:13:43.139Z,100002.47
2022-09-13T01:16:34.478Z,99996.50
2022-09-13T01:19:22.949Z,100002.69
2022-09-13T01:22:29.790Z,99992.00
2022-09-13T01:25:57.340Z,99983.53
2022-09-13T01:29:20.015Z,99977.72
2022-09-13T01:32:16.017Z,99973.06
2022-09-13T01:35:16.956Z,99977.13
2022-09-13T01:38:11.125Z,99971.78
2022-09-13T01:41:08.887Z,99962.34
2022-09-13T01:44:00.533Z,99968.50
2022-09-13T01:46:54.962Z,99962.56
2022-09-13T01:49:48.943Z,99956.63
2022-09-13T01:52:43.076Z,99957.22
2022-09-13T01:55:35.866Z,99952.91
2022-09-13T01:58:28.611Z,99954.53
2022-09-13T02:01:20.344Z,99950.81
2022-09-13T02:04:12.241Z,99944.63
2022-09-13T02:07:05.236Z,99943.00
2022-09-13T02:09:58.485Z,99940.13
2022-09-13T02:12:48.786Z,99942.19
2022-09-13T02:15:41.269Z,99938.47
2022-09-13T02:18:33.395Z,99935.41
2022-09-13T02:21:24.729Z,99937.28
2022-09-13T02:24:17.989Z,99935.41
2022-09-13T02:27:10.033Z,99939.97
2022-09-13T02:30:02.414Z,99930.25
2022-09-13T02:32:55.702Z,99932.28
2022-09-13T02:35:48.795Z,99936.84
2022-09-13T02:38:45.176Z,99935.38
2022-09-13T02:41:39.113Z,99926.16
2022-09-13T02:44:30.579Z,99926.59
2022-09-13T02:47:30.806Z,99929.44
2022-09-13T02:50:34.482Z,99929.44
2022-09-13T02:53:29.571Z,99926.59
2022-09-13T02:56:23.972Z,99934.63
2022-09-13T02:59:16.958Z,99939.13
2022-09-13T03:02:07.479Z,99932.28
2022-09-13T03:04:56.390Z,99923.91
2022-09-13T03:07:44.743Z,99920.78
2022-09-13T03:10:40.969Z,99916.91
2022-09-13T03:13:40.393Z,99915.88
2022-09-13T03:16:41.830Z,99908.25
2022-09-13T03:19:41.697Z,99898.59
2022-09-13T03:22:42.487Z,99895.91
2022-09-13T03:25:50.318Z,99901.09
2022-09-13T03:28:43.188Z,99884.03
2022-09-13T03:31:35.538Z,99881.34
2022-09-13T03:34:32.338Z,99872.94
2022-09-13T03:37:26.398Z,99865.75
2022-09-13T03:40:18.401Z,99876.06
2022-09-13T03:43:12.357Z,99875.22
2022-09-13T03:46:03.852Z,99876.66
2022-09-13T03:48:54.048Z,99876.06
2022-09-13T03:51:42.572Z,99871.34
2022-09-13T03:54:33.031Z,99871.34
2022-09-13T03:57:23.355Z,99875.06
2022-09-13T04:00:18.116Z,99873.00
2022-09-13T04:03:07.732Z,99881.84
2022-09-13T04:05:59.763Z,99883.47
2022-09-13T04:08:48.370Z,99883.53
2022-09-13T04:11:37.623Z,99880.22
2022-09-13T04:14:28.279Z,99875.72
2022-09-13T04:17:17.335Z,99877.34
2022-09-13T04:20:06.803Z,99873.44
2022-09-13T04:22:57.653Z,99877.34
2022-09-13T04:25:46.239Z,99872.84
2022-09-13T04:28:34.671Z,99869.72
2022-09-13T04:31:23.180Z,99868.69
2022-09-13T04:34:11.805Z,99866.59
2022-09-13T04:37:00.265Z,99868.63
2022-09-13T04:39:50.150Z,99871.94
2022-09-13T04:42:38.827Z,99871.19
2022-09-13T04:45:27.693Z,99877.16
2022-09-13T04:48:16.405Z,99871.94
2022-09-13T04:51:05.688Z,99874.19
2022-09-13T04:53:55.224Z,99877.75
2022-09-13T04:56:45.496Z,99871.50
2022-09-13T04:59:34.023Z,99867.19
2022-09-13T05:02:22.536Z,99870.31
2022-09-13T05:05:11.197Z,99869.13
2022-09-13T05:07:59.679Z,99869.13
2022-09-13T05:10:48.789Z,99872.84
2022-09-13T05:13:39.514Z,99865.41
2022-09-13T05:16:29.058Z,99863.97
2022-09-13T05:19:17.727Z,99860.50
2022-09-13T05:22:06.300Z,99853.13
2022-09-13T05:24:54.738Z,99848.59
2022-09-13T05:27:43.167Z,99847.41
2022-09-13T05:30:33.038Z,99848.63
2022-09-13T05:33:22.557Z,99852.34
2022-09-13T05:36:13.684Z,99850.31
2022-09-13T05:39:28.483Z,99850.31
2022-09-13T05:42:10.725Z,99844.97
2022-09-13T05:45:00.151Z,99846.19
2022-09-13T05:47:53.169Z,99838.81
2022-09-13T05:50:58.670Z,99832.06
2022-09-13T05:53:48.416Z,99820.31
2022-09-13T05:56:36.868Z,99817.38
2022-09-13T05:59:25.498Z,99814.97
2022-09-13T06:02:13.993Z,99817.06
2022-09-13T06:05:03.876Z,99813.19
2022-09-13T06:07:52.336Z,99816.28
2022-09-13T06:10:40.807Z,99809.28
2022-09-13T06:13:30.055Z,99816.72
2022-09-13T06:16:18.628Z,99811.81
2022-09-13T06:19:07.204Z,99804.84
2022-09-13T06:21:57.011Z,99801.78
2022-09-13T06:24:45.542Z,99797.47
2022-09-13T06:27:36.285Z,99801.56
2022-09-13T06:30:25.098Z,99795.19
2022-09-13T06:33:13.683Z,99804.84
2022-09-13T06:36:04.088Z,99806.22
2022-09-13T06:38:54.096Z,99806.91
2022-09-13T06:41:42.587Z,99808.09
2022-09-13T06:44:31.078Z,99808.31
2022-09-13T06:47:19.586Z,99809.13
2022-09-13T06:50:09.520Z,99800.53
2022-09-13T06:52:58.124Z,99803.78
2022-09-13T06:55:47.895Z,99795.78
2022-09-13T06:58:37.206Z,99795.78
2022-09-13T07:01:28.158Z,99794.34
2022-09-13T07:04:19.324Z,99790.88
2022-09-13T07:07:07.775Z,99793.53
2022-09-13T07:09:56.122Z,99792.50
2022-09-13T07:12:45.880Z,99786.31
2022-09-13T07:15:40.379Z,99786.31
2022-09-13T07:18:28.872Z,99786.31
2022-09-13T07:21:18.169Z,99773.16
2022-09-13T07:24:13.645Z,99774.22
2022-09-13T07:27:02.187Z,99791.28
2022-09-13T07:29:50.694Z,99786.53
2022-09-13T07:32:39.096Z,99784.09
2022-09-13T07:35:27.453Z,99790.47
2022-09-13T07:38:15.887Z,99788.59
2022-09-13T07:41:06.772Z,99785.88
2022-09-13T07:43:55.467Z,99785.09
2022-09-13T07:46:44.390Z,99792.06
2022-09-13T07:49:32.872Z,99787.75
2022-09-13T07:52:21.293Z,99788.94
2022-09-13T07:55:10.555Z,99799.03
2022-09-13T07:58:00.567Z,99801.50
2022-09-13T08:00:49.042Z,99798.00
2022-09-13T08:03:38.205Z,99805.19
2022-09-13T08:06:28.355Z,99800.69
2022-09-13T08:09:17.596Z,99813.00
2022-09-13T08:12:06.378Z,99803.34
2022-09-13T08:14:56.263Z,99816.28
2022-09-13T08:17:44.704Z,99813.59
2022-09-13T08:20:33.160Z,99810.50
2022-09-13T08:23:21.963Z,99807.22
2022-09-13T08:26:10.818Z,99822.84
2022-09-13T08:29:00.404Z,99825.06
2022-09-13T08:31:50.245Z,99833.09
2022-09-13T08:34:38.653Z,99827.50
2022-09-13T08:37:27.204Z,99817.84
2022-09-13T08:40:15.814Z,99801.41
2022-09-13T08:43:07.136Z,99818.69
2022-09-13T08:46:04.681Z,99815.41
2022-09-13T08:48:57.011Z,99811.13
2022-09-13T08:51:48.408Z,99814.59
2022-09-13T08:54:36.909Z,99806.34
2022-09-13T08:57:29.769Z,99807.56
2022-09-13T09:00:24.937Z,99812.47
2022-09-13T09:03:22.849Z,99815.13
2022-09-13T09:06:16.374Z,99817.38
2022-09-13T09:09:07.840Z,99809.38
2022-09-13T09:12:01.700Z,99799.72
2022-09-13T09:14:58.896Z,99792.72
2022-09-13T09:17:52.963Z,99782.03
2022-09-13T09:20:43.161Z,99778.31
2022-09-13T09:23:38.510Z,99778.75
2022-09-13T09:26:29.560Z,99774.81
2022-09-13T09:29:25.477Z,99775.47
2022-09-13T09:32:24.164Z,99774.03
2022-09-13T09:35:18.636Z,99782.03
2022-09-13T09:38:21.330Z,99782.03
2022-09-13T09:41:18.011Z,99783.69
2022-09-13T09:44:18.954Z,99782.03
2022-09-13T09:47:13.295Z,99776.69
2022-09-13T09:50:13.135Z,99760.22
2022-09-13T09:53:05.449Z,99763.84
2022-09-13T09:56:00.392Z,99760.94
2022-09-13T09:58:50.481Z,99757.22
2022-09-13T10:01:40.066Z,99749.00
2022-09-13T10:04:29.100Z,99742.41
2022-09-13T10:07:27.257Z,99727.53
2022-09-13T10:10:23.435Z,99727.47
2022-09-13T10:13:17.365Z,99728.31
2022-09-13T10:16:08.654Z,99720.88
2022-09-13T10:19:18.795Z,99712.63
2022-09-13T10:22:12.857Z,99711.34
2022-09-13T10:25:15.895Z,99710.50
2022-09-13T10:28:06.533Z,99712.59
2022-09-13T10:30:56.415Z,99715.44
2022-09-13T10:33:54.515Z,99707.63
2022-09-13T10:36:53.025Z,99711.34
2022-09-13T10:39:54.829Z,99700.22
2022-09-13T10:42:53.825Z,99700.22
2022-09-13T10:45:43.369Z,99697.75
2022-09-13T10:48:32.930Z,99697.72
2022-09-13T10:51:34.427Z,99692.00
2022-09-13T10:54:25.605Z,99690.75
2022-09-13T10:57:33.428Z,99678.53
2022-09-13T11:00:24.636Z,99684.94
2022-09-13T11:03:27.855Z,99682.84
2022-09-13T11:06:22.119Z,99684.47
2022-09-13T11:09:14.629Z,99679.13
2022-09-13T11:12:08.531Z,99678.69
2022-09-13T11:15:03.774Z,99671.25
2022-09-13T11:18:05.785Z,99673.03
2022-09-13T11:20:59.624Z,99671.38
2022-09-13T11:23:59.002Z,99670.34
2022-09-13T11:26:56.850Z,99660.84
2022-09-13T11:30:11.560Z,99661.94
2022-09-13T11:33:20.302Z,99655.16
2022-09-13T11:36:38.764Z,99659.34
2022-09-13T11:39:33.368Z,99652.94
2022-09-13T11:42:35.212Z,99663.00
2022-09-13T11:45:26.176Z,99655.44
2022-09-13T11:48:33.041Z,99657.31
2022-09-13T11:51:27.302Z,99649.31
2022-09-13T11:54:23.164Z,99639.88
2022-09-13T11:57:15.158Z,99638.91
2022-09-13T12:00:08.258Z,99639.06
2022-09-13T12:03:04.256Z,99645.31
2022-09-13T12:05:54.801Z,99636.25
2022-09-13T12:08:46.644Z,99628.34
2022-09-13T12:11:36.478Z,99633.34
2022-09-13T12:14:27.656Z,99630.88
2022-09-13T12:17:25.543Z,99644.25
2022-09-13T12:20:19.433Z,99627.63
2022-09-13T12:23:14.356Z,99633.13
2022-09-13T12:26:05.982Z,99619.75
2022-09-13T12:28:56.473Z,99615.47
2022-09-13T12:31:45.003Z,99623.00
2022-09-13T12:34:41.013Z,99618.66
2022-09-13T12:37:46.683Z,99615.09
2022-09-13T12:41:00.827Z,99617.66
2022-09-13T12:44:09.767Z,99613.34
2022-09-13T12:47:15.662Z,99601.59
2022-09-13T12:50:42.851Z,99593.66
2022-09-13T12:53:43.610Z,99596.94
2022-09-13T12:56:41.842Z,99595.75
2022-09-13T12:59:40.006Z,99587.28
2022-09-13T13:02:32.500Z,99585.38
2022-09-13T13:05:27.883Z,99587.44
2022-09-13T13:08:30.037Z,99591.16
2022-09-13T13:11:22.167Z,99585.78
2022-09-13T13:14:31.106Z,99586.41
2022-09-13T13:17:40.694Z,99580.88
2022-09-13T13:21:05.641Z,99586.59
2022-09-13T13:24:47.415Z,99584.78
2022-09-13T13:27:48.063Z,99581.63
2022-09-13T13:30:54.087Z,99579.75
2022-09-13T13:33:50.527Z,99583.63
2022-09-13T13:36:49.285Z,99583.50
2022-09-13T13:39:41.261Z,99581.78
2022-09-13T13:42:33.737Z,99583.41
2022-09-13T13:45:25.790Z,99578.72
2022-09-13T13:48:16.212Z,99583.63
2022-09-13T13:51:22.129Z,99568.72
2022-09-13T13:54:34.195Z,99581.88
2022-09-13T13:57:25.206Z,99575.81
2022-09-13T14:00:16.319Z,99579.31
2022-09-13T14:03:13.504Z,99570.44
2022-09-13T14:06:08.683Z,99567.41
2022-09-13T14:09:06.893Z,99570.44
2022-09-13T14:12:07.905Z,99560.19
2022-09-13T14:15:13.180Z,99562.88
2022-09-13T14:18:42.756Z,99555.31
2022-09-13T14:21:32.280Z,99557.75
2022-09-13T14:24:23.850Z,99553.78
2022-09-13T14:27:21.447Z,99541.56
2022-09-13T14:30:20.058Z,99543.81
2022-09-13T14:33:08.708Z,99545.06
2022-09-13T14:36:03.023Z,99549.84
2022-09-13T14:38:55.463Z,99553.59
2022-09-13T14:41:44.422Z,99548.66
2022-09-13T14:44:34.411Z,99541.94
2022-09-13T14:47:27.970Z,99535.97
2022-09-13T14:50:18.192Z,99534.91
2022-09-13T14:53:08.814Z,99539.25
2022-09-13T14:55:58.675Z,99538.03
2022-09-13T14:58:49.636Z,99538.03
2022-09-13T15:01:39.398Z,99528.38
2022-09-13T15:04:28.496Z,99533.16
2022-09-13T15:07:23.122Z,99528.25
2022-09-13T15:10:23.705Z,99541.75
2022-09-13T15:13:12.675Z,99536.75
2022-09-13T15:16:01.603Z,99535.34
2022-09-13T15:19:18.272Z,99539.91
2022-09-13T15:22:14.691Z,99536.28
2022-09-13T15:25:03.965Z,99533.16
2022-09-13T15:27:52.530Z,99538.97
2022-09-13T15:30:42.224Z,99542.69
2022-09-13T15:33:32.541Z,99547.69
2022-09-13T15:36:31.560Z,99541.06
2022-09-13T15:39:22.945Z,99540.25
2022-09-13T15:42:11.299Z,99541.66
2022-09-13T15:44:59.821Z,99534.41
2022-09-13T15:47:49.320Z,99529.88
2022-09-13T15:50:38.695Z,99545.00
2022-09-13T15:53:28.590Z,99527.78
2022-09-13T15:56:19.358Z,99535.03
2022-09-13T15:59:07.823Z,99531.16
2022-09-13T16:01:56.857Z,99532.00
2022-09-13T16:04:45.273Z,99525.34
2022-09-13T16:07:33.788Z,99530.09
2022-09-13T16:10:24.574Z,99521.84
2022-09-13T16:13:13.138Z,99532.00
2022-09-13T16:16:01.717Z,99526.28
2022-09-13T16:18:50.309Z,99528.00
2022-09-13T16:21:39.902Z,99524.53
2022-09-13T16:24:28.526Z,99527.69
2022-09-13T16:27:19.641Z,99522.06
2022-09-13T16:30:09.929Z,99517.09
2022-09-13T16:32:58.867Z,99521.63
2022-09-13T16:35:48.163Z,99524.53
2022-09-13T16:38:36.539Z,99528.25
2022-09-13T16:41:25.552Z,99528.84
2022-09-13T16:44:15.957Z,99526.16
2022-09-13T16:47:04.421Z,99529.41
2022-09-13T16:49:52.870Z,99522.44
2022-09-13T16:52:41.330Z,99521.28
2022-09-13T16:55:30.168Z,99515.09
2022-09-13T16:58:18.608Z,99520.81
2022-09-13T17:01:09.122Z,99519.97
2022-09-13T17:03:58.269Z,99523.13
2022-09-13T17:06:48.973Z,99514.50
2022-09-13T17:09:38.034Z,99521.13
2022-09-13T17:12:26.830Z,99516.03
2022-09-13T17:15:15.869Z,99511.47
2022-09-13T17:18:05.877Z,99510.69
2022-09-13T17:20:54.391Z,99513.72
2022-09-13T17:23:42.846Z,99503.91
2022-09-13T17:26:31.292Z,99508.59
2022-09-13T17:29:22.286Z,99505.69
2022-09-13T17:32:10.834Z,99512.47
2022-09-13T17:35:00.983Z,99519.47
2022-09-13T17:37:49.451Z,99514.09
2022-09-13T17:40:37.856Z,99510.59
2022-09-13T17:43:26.339Z,99492.69
2022-09-13T17:46:16.366Z,99495.94
2022-09-13T17:49:06.052Z,99506.66
2022-09-13T17:51:56.479Z,99497.09
2022-09-13T17:54:46.423Z,99490.81
2022-09-13T17:57:34.835Z,99491.75
2022-09-13T18:00:23.435Z,99493.69
2022-09-13T18:03:12.063Z,99492.97
2022-09-13T18:06:02.228Z,99501.00
2022-09-13T18:08:54.434Z,99497.50
2022-09-13T18:11:43.374Z,99496.25
2022-09-13T18:14:32.788Z,99492.97
2022-09-13T18:17:21.195Z,99487.75
2022-09-13T18:20:10.281Z,99495.69
2022-09-13T18:22:58.660Z,99498.22
2022-09-13T18:26:02.117Z,99494.38
2022-09-13T18:28:55.974Z,99493.25
2022-09-13T18:31:44.485Z,99496.97
2022-09-13T18:34:32.942Z,99496.16
2022-09-13T18:37:21.374Z,99491.50
2022-09-13T18:40:13.932Z,99493.13
2022-09-13T18:43:03.785Z,99496.84
2022-09-13T18:45:55.958Z,99494.41
2022-09-13T18:48:45.792Z,99497.53
2022-09-13T18:51:35.995Z,99501.53
2022-09-13T18:54:26.857Z,99504.44
2022-09-13T18:57:15.284Z,99499.44
2022-09-13T19:00:05.781Z,99503.63
2022-09-13T19:03:11.231Z,99503.63
2022-09-13T19:06:11.945Z,99508.38
2022-09-13T19:09:01.279Z,99506.53
2022-09-13T19:11:51.406Z,99504.09
2022-09-13T19:14:39.992Z,99519.34
2022-09-13T19:17:30.061Z,99524.34
2022-09-13T19:20:19.325Z,99525.88
2022-09-13T19:23:07.857Z,99522.38
2022-09-13T19:25:56.327Z,99523.66
2022-09-13T19:28:47.817Z,99525.28
2022-09-13T19:31:37.831Z,99528.56
2022-09-13T19:34:27.618Z,99533.56
2022-09-13T19:37:16.080Z,99536.47
2022-09-13T19:40:05.528Z,99530.31
2022-09-13T19:42:54.803Z,99537.28
2022-09-13T19:45:43.291Z,99537.72
2022-09-13T19:48:38.818Z,99534.25
2022-09-13T19:51:30.325Z,99529.94
2022-09-13T19:54:19.013Z,99536.94
2022-09-13T19:57:08.818Z,99535.88
2022-09-13T19:59:57.284Z,99535.31
2022-09-13T20:02:45.718Z,99540.19
2022-09-13T20:05:34.325Z,99543.91
2022-09-13T20:08:25.892Z,99534.47
2022-09-13T20:11:16.026Z,99534.72
2022-09-13T20:14:04.499Z,99532.03
2022-09-13T20:16:54.410Z,99540.53
2022-09-13T20:19:49.090Z,99536.88
2022-09-13T20:22:39.007Z,99534.66
2022-09-13T20:25:28.790Z,99538.25
2022-09-13T20:28:17.463Z,99537.56
2022-09-13T20:31:08.351Z,99539.19
2022-09-13T20:33:57.037Z,99541.97
2022-09-13T20:36:47.090Z,99539.44
2022-09-13T20:39:35.722Z,99541.28
2022-09-13T20:42:25.490Z,99536.03
2022-09-13T20:45:16.715Z,99541.75
2022-09-13T20:48:05.314Z,99539.91
2022-09-13T20:51:00.111Z,99539.91
2022-09-13T20:53:49.098Z,99543.16
2022-09-13T20:56:37.520Z,99542.94
2022-09-13T20:59:27.325Z,99538.38
2022-09-13T21:02:15.796Z,99533.91
2022-09-13T21:05:04.744Z,99540.06
2022-09-13T21:08:10.964Z,99533.44
2022-09-13T21:11:02.724Z,99532.59
2022-09-13T21:13:53.606Z,99529.69
2022-09-13T21:16:43.506Z,99542.88
2022-09-13T21:19:31.945Z,99539.50
2022-09-13T21:22:21.940Z,99534.59
2022-09-13T21:25:11.308Z,99541.56
2022-09-13T21:27:59.775Z,99540.06
2022-09-13T21:30:57.949Z,99541.56
2022-09-13T21:33:48.357Z,99548.34
2022-09-13T21:36:37.302Z,99546.00
2022-09-13T21:39:25.701Z,99552.16
2022-09-13T21:42:15.851Z,99550.22
2022-09-13T21:45:04.570Z,99545.88
2022-09-13T21:47:53.122Z,99550.66
2022-09-13T21:50:42.890Z,99549.50
2022-09-13T21:53:33.933Z,99551.94
2022-09-13T21:56:24.248Z,99552.97
2022-09-13T21:59:15.450Z,99549.50
2022-09-13T22:02:03.853Z,99556.34
2022-09-13T22:04:53.447Z,99558.78
2022-09-13T22:07:43.267Z,99558.00
2022-09-13T22:10:31.689Z,99560.06
2022-09-13T22:13:22.517Z,99565.84
2022-09-13T22:16:11.488Z,99567.25
2022-09-13T22:19:07.970Z,99566.44
2022-09-13T22:21:59.814Z,99573.44
2022-09-13T22:24:49.687Z,99563.53
2022-09-13T22:27:38.187Z,99570.16
2022-09-13T22:30:27.677Z,99569.09
2022-09-13T22:33:16.185Z,99563.19
2022-09-13T22:36:07.209Z,99564.81
2022-09-13T22:38:56.137Z,99578.44
2022-09-13T22:41:46.208Z,99573.88
2022-09-13T22:44:34.653Z,99575.50
2022-09-13T22:47:24.425Z,99579.25
2022-09-13T22:50:12.882Z,99571.78
2022-09-13T22:53:01.460Z,99567.94
2022-09-13T22:55:50.676Z,99568.53
2022-09-13T22:58:40.729Z,99572.25
2022-09-13T23:01:30.811Z,99578.66
2022-09-13T23:04:19.478Z,99580.88
2022-09-13T23:07:07.980Z,99579.81
2022-09-13T23:09:56.438Z,99586.22
2022-09-13T23:12:45.713Z,99580.06
2022-09-13T23:15:35.701Z,99579.25
2022-09-13T23:18:25.589Z,99574.34
2022-09-13T23:21:14.180Z,99566.44
2022-09-13T23:24:04.181Z,99577.13
2022-09-13T23:26:58.259Z,99576.56
2022-09-13T23:29:46.905Z,99568.53
2022-09-13T23:32:36.754Z,99567.47
2022-09-13T23:35:25.966Z,99572.03
2022-09-13T23:38:14.687Z,99567.47
2022-09-13T23:41:03.252Z,99569.00
2022-09-13T23:43:51.970Z,99564.47
2022-09-13T23:46:40.374Z,99558.28
2022-09-13T23:49:30.204Z,99556.44
2022-09-13T23:52:18.890Z,99559.91
2022-09-13T23:55:08.652Z,99550.84
2022-09-13T23:57:57.205Z,99547.59
